Time;durP1;ratioP1;P1;durP2;ratioP2;P2;SDS_P1;SDS_P2;PMS_P1;PMS_P2;Temp;Humidity;BMP_temperature;BMP_pressure;BME280_temperature;BME280_humidity;BME280_pressure;Samples;Min_cycle;Max_cycle;Signal;HPM_P1;HPM_P2
2021/05/04 00:00:49;;;;;;;;;;;7.90;99.90;;;;;;5052632;28;19996;-76
2021/05/04 00:03:15;;;;;;;;;;;7.80;99.90;;;;;;5034799;28;19911;-76
2021/05/04 00:05:40;;;;;;;;;;;7.90;99.90;;;;;;5034714;28;20380;-76
2021/05/04 00:08:06;;;;;;;;;;;8.00;99.90;;;;;;5034773;28;19911;-76
2021/05/04 00:10:31;;;;;;;;;;;7.90;99.90;;;;;;5052546;28;19905;-76
2021/05/04 00:12:57;;;;;;;;;;;7.90;99.90;;;;;;5052571;28;19905;-76
2021/05/04 00:15:22;;;;;;;;;;;7.80;99.90;;;;;;5034453;28;19912;-76
2021/05/04 00:17:48;;;;;;;;;;;7.80;99.90;;;;;;5034631;28;20382;-76
2021/05/04 00:20:13;;;;;;;;;;;7.80;99.90;;;;;;5034658;28;19920;-76
2021/05/04 00:22:39;;;;;;;;;;;7.70;99.90;;;;;;5034707;28;19915;-76
2021/05/04 00:25:04;;;;;;;;;;;7.70;99.90;;;;;;5034443;28;19909;-77
2021/05/04 00:27:30;;;;;;;;;;;7.70;99.90;;;;;;5034871;28;19904;-77
2021/05/04 00:29:55;;;;;;;;;;;7.70;99.90;;;;;;5034485;28;19905;-76
2021/05/04 00:32:21;;;;;;;;;;;7.80;99.90;;;;;;5052341;28;19959;-76
2021/05/04 00:34:46;;;;;;;;;;;7.90;99.90;;;;;;5052101;28;19956;-77
2021/05/04 00:37:12;;;;;;;;;;;7.90;99.90;;;;;;5034464;28;19909;-76
2021/05/04 00:39:38;;;;;;;;;;;8.00;99.90;;;;;;5034349;28;19905;-77
2021/05/04 00:42:04;;;;;;;;;;;8.20;99.90;;;;;;5052115;28;19909;-76
2021/05/04 00:44:29;;;;;;;;;;;8.20;99.90;;;;;;5051977;28;20402;-76
2021/05/04 00:46:55;;;;;;;;;;;8.20;99.90;;;;;;5034428;28;19905;-76
2021/05/04 00:49:20;;;;;;;;;;;8.20;99.90;;;;;;5034327;28;19904;-76
2021/05/04 00:51:47;;;;;;;;;;;8.30;99.90;;;;;;5034132;28;19992;-76
2021/05/04 00:54:13;;;;;;;;;;;8.30;99.90;;;;;;5034015;28;19909;-76
2021/05/04 00:56:39;;;;;;;;;;;8.40;99.90;;;;;;5034438;28;19908;-76
2021/05/04 00:59:05;;;;;;;;;;;8.30;99.90;;;;;;5052016;28;19928;-76
2021/05/04 01:01:31;;;;;;;;;;;8.40;99.90;;;;;;5054068;28;20406;-76
2021/05/04 01:03:57;;;;;;;;;;;8.30;99.90;;;;;;5056453;28;19904;-76
2021/05/04 01:06:23;;;;;;;;;;;8.20;99.90;;;;;;5038050;28;20360;-77
2021/05/04 01:08:48;;;;;;;;;;;8.20;99.90;;;;;;5055991;28;19905;-76
2021/05/04 01:11:13;;;;;;;;;;;8.20;99.90;;;;;;5038013;28;20296;-77
2021/05/04 01:13:39;;;;;;;;;;;8.30;99.90;;;;;;5037590;28;20307;-77
2021/05/04 01:16:04;;;;;;;;;;;8.20;99.90;;;;;;5055680;28;19923;-76
2021/05/04 01:18:30;;;;;;;;;;;8.20;99.90;;;;;;5037941;28;19912;-76
2021/05/04 01:20:55;;;;;;;;;;;8.00;99.90;;;;;;5037726;28;19932;-76
2021/05/04 01:23:21;;;;;;;;;;;8.00;99.90;;;;;;5055640;28;19999;-77
2021/05/04 01:25:46;;;;;;;;;;;8.00;99.90;;;;;;5055784;28;20286;-76
2021/05/04 01:28:12;;;;;;;;;;;8.00;99.90;;;;;;5055625;28;20386;-76
2021/05/04 01:30:37;;;;;;;;;;;8.00;99.90;;;;;;5037640;28;19909;-76
2021/05/04 01:33:03;;;;;;;;;;;8.00;99.90;;;;;;5037817;28;19971;-77
2021/05/04 01:35:29;;;;;;;;;;;8.00;99.90;;;;;;5037734;28;19916;-77
2021/05/04 01:37:55;;;;;;;;;;;7.90;99.90;;;;;;5055795;28;20375;-77
2021/05/04 01:40:20;;;;;;;;;;;7.80;99.90;;;;;;5037655;28;20351;-76
2021/05/04 01:42:46;;;;;;;;;;;7.80;99.90;;;;;;5037382;28;19915;-76
2021/05/04 01:45:12;;;;;;;;;;;7.80;99.90;;;;;;5055563;28;19905;-77
2021/05/04 01:47:38;;;;;;;;;;;7.80;99.90;;;;;;5055314;28;19955;-76
2021/05/04 01:50:05;;;;;;;;;;;7.80;99.90;;;;;;5037396;28;20104;-76
2021/05/04 01:52:32;;;;;;;;;;;7.80;99.90;;;;;;5055131;28;19908;-76
2021/05/04 01:54:57;;;;;;;;;;;7.80;99.90;;;;;;5054939;28;19959;-76
2021/05/04 01:57:23;;;;;;;;;;;7.90;99.90;;;;;;5037308;28;19904;-77
2021/05/04 01:59:49;;;;;;;;;;;8.00;99.90;;;;;;5037224;28;20007;-77
2021/05/04 02:02:14;;;;;;;;;;;8.00;99.90;;;;;;5055444;28;20376;-77
2021/05/04 02:04:40;;;;;;;;;;;8.00;99.90;;;;;;5036877;28;19909;-77
2021/05/04 02:07:05;;;;;;;;;;;8.00;99.90;;;;;;5054891;28;20271;-76
2021/05/04 02:09:31;;;;;;;;;;;8.00;99.90;;;;;;5054872;28;19958;-77
2021/05/04 02:11:57;;;;;;;;;;;8.00;99.90;;;;;;5036423;28;19904;-76
2021/05/04 02:14:22;;;;;;;;;;;8.00;99.90;;;;;;5036730;28;19915;-76
2021/05/04 02:16:47;;;;;;;;;;;8.00;99.90;;;;;;5036799;28;19909;-76
2021/05/04 02:19:13;;;;;;;;;;;8.00;99.90;;;;;;5054553;28;19911;-76
2021/05/04 02:21:38;;;;;;;;;;;8.10;99.90;;;;;;5036713;28;19958;-76
2021/05/04 02:24:04;;;;;;;;;;;8.00;99.90;;;;;;5054478;28;19916;-77
2021/05/04 02:26:30;;;;;;;;;;;8.00;99.90;;;;;;5036723;28;19904;-76
2021/05/04 02:28:55;;;;;;;;;;;8.00;99.90;;;;;;5054574;28;19950;-76
2021/05/04 02:31:20;;;;;;;;;;;8.00;99.90;;;;;;5036508;28;19911;-76
2021/05/04 02:33:46;;;;;;;;;;;8.00;99.90;;;;;;5036340;28;20012;-76
2021/05/04 02:36:12;;;;;;;;;;;7.90;99.90;;;;;;5054246;28;19905;-77
2021/05/04 02:38:37;;;;;;;;;;;8.00;99.90;;;;;;5054370;28;20417;-76
2021/05/04 02:41:04;;;;;;;;;;;8.10;99.90;;;;;;5054111;28;19904;-76
2021/05/04 02:43:30;;;;;;;;;;;8.20;99.90;;;;;;5054170;28;19905;-76
2021/05/04 02:45:55;;;;;;;;;;;8.20;99.90;;;;;;5036217;28;19905;-76
2021/05/04 02:48:21;;;;;;;;;;;8.20;99.90;;;;;;5036181;28;19909;-76
2021/05/04 02:50:47;;;;;;;;;;;8.20;99.90;;;;;;5053975;28;19940;-76
2021/05/04 02:53:12;;;;;;;;;;;8.30;99.90;;;;;;5053932;28;19905;-76
2021/05/04 02:55:38;;;;;;;;;;;8.30;99.90;;;;;;5036105;28;19904;-76
2021/05/04 02:58:04;;;;;;;;;;;8.30;99.90;;;;;;5054006;28;20046;-76
2021/05/04 03:00:29;;;;;;;;;;;8.30;99.90;;;;;;5035992;28;20344;-77
2021/05/04 03:02:55;;;;;;;;;;;8.30;99.90;;;;;;5035807;28;19916;-76
2021/05/04 03:05:20;;;;;;;;;;;8.30;99.90;;;;;;5053669;28;19905;-76
2021/05/04 03:07:46;;;;;;;;;;;8.30;99.90;;;;;;5053822;28;19912;-77
2021/05/04 03:10:11;;;;;;;;;;;8.30;99.90;;;;;;5035849;28;19905;-76
2021/05/04 03:12:37;;;;;;;;;;;8.30;99.90;;;;;;5035645;28;19905;-76
2021/05/04 03:15:03;;;;;;;;;;;8.40;99.90;;;;;;5053339;28;19999;-77
2021/05/04 03:17:29;;;;;;;;;;;8.40;99.90;;;;;;5053544;28;19923;-77
2021/05/04 03:19:54;;;;;;;;;;;8.40;99.90;;;;;;5035698;28;19908;-76
2021/05/04 03:22:19;;;;;;;;;;;8.50;99.90;;;;;;5053350;28;19999;-77
2021/05/04 03:24:46;;;;;;;;;;;8.50;99.90;;;;;;5052436;28;20252;-76
2021/05/04 03:27:11;;;;;;;;;;;8.50;99.90;;;;;;5053416;28;19975;-77
2021/05/04 03:29:37;;;;;;;;;;;8.50;99.90;;;;;;5053401;28;20013;-76
2021/05/04 03:32:02;;;;;;;;;;;8.50;99.90;;;;;;5035574;28;19912;-77
2021/05/04 03:34:28;;;;;;;;;;;8.50;99.90;;;;;;5053024;28;20083;-76
2021/05/04 03:36:53;;;;;;;;;;;8.40;99.90;;;;;;5035392;28;19936;-76
2021/05/04 03:39:19;;;;;;;;;;;8.50;99.90;;;;;;5053195;28;19947;-76
2021/05/04 03:41:44;;;;;;;;;;;8.40;99.90;;;;;;5035252;28;19916;-76
2021/05/04 03:44:10;;;;;;;;;;;8.30;99.90;;;;;;5052886;28;19916;-76
2021/05/04 03:46:35;;;;;;;;;;;8.40;99.90;;;;;;5035203;28;20367;-77
2021/05/04 03:49:01;;;;;;;;;;;8.40;99.90;;;;;;5052927;28;20311;-76
2021/05/04 03:51:26;;;;;;;;;;;8.30;99.90;;;;;;5035098;28;19905;-77
2021/05/04 03:53:52;;;;;;;;;;;8.30;99.90;;;;;;5052707;28;20272;-76
2021/05/04 03:56:17;;;;;;;;;;;8.30;99.90;;;;;;5052899;28;19905;-76
2021/05/04 03:58:43;;;;;;;;;;;8.30;99.90;;;;;;5052935;28;19912;-76
2021/05/04 04:01:08;;;;;;;;;;;8.30;99.90;;;;;;5034773;28;20360;-76
2021/05/04 04:03:34;;;;;;;;;;;8.30;99.90;;;;;;5034778;28;19909;-77
2021/05/04 04:05:59;;;;;;;;;;;8.20;99.90;;;;;;5034846;28;19911;-76
2021/05/04 04:08:25;;;;;;;;;;;8.20;99.90;;;;;;5052706;28;19947;-77
2021/05/04 04:10:50;;;;;;;;;;;8.20;99.90;;;;;;5035252;28;20314;-76
2021/05/04 04:13:16;;;;;;;;;;;8.10;99.90;;;;;;5052571;28;19912;-77
2021/05/04 04:15:42;;;;;;;;;;;8.20;99.90;;;;;;5034567;28;19961;-77
2021/05/04 04:18:07;;;;;;;;;;;8.20;99.90;;;;;;5052997;28;19990;-77
2021/05/04 04:20:33;;;;;;;;;;;8.10;99.90;;;;;;5052596;28;20371;-77
2021/05/04 04:22:58;;;;;;;;;;;8.20;99.90;;;;;;5052339;28;20000;-77
2021/05/04 04:25:24;;;;;;;;;;;8.10;99.90;;;;;;5052777;28;19912;-77
2021/05/04 04:27:49;;;;;;;;;;;8.10;99.90;;;;;;5034597;28;19905;-77
2021/05/04 04:30:15;;;;;;;;;;;8.10;99.90;;;;;;5052441;28;19909;-77
2021/05/04 04:32:45;;;;;;;;;;;8.20;99.90;;;;;;5034331;28;19999;-77
2021/05/04 04:35:11;;;;;;;;;;;8.10;99.90;;;;;;5034187;28;19940;-77
2021/05/04 04:37:36;;;;;;;;;;;8.20;99.90;;;;;;5052610;28;19955;-77
2021/05/04 04:40:03;;;;;;;;;;;8.20;99.90;;;;;;5035376;28;20379;-77
2021/05/04 04:42:28;;;;;;;;;;;8.20;99.90;;;;;;5035961;28;19904;-77
2021/05/04 04:44:54;;;;;;;;;;;8.30;99.90;;;;;;5036130;28;19904;-78
2021/05/04 04:47:19;;;;;;;;;;;8.30;99.90;;;;;;5051635;28;19904;-77
2021/05/04 04:49:44;;;;;;;;;;;8.40;99.90;;;;;;5031785;28;20579;-77
2021/05/04 04:52:10;;;;;;;;;;;8.30;99.90;;;;;;5039451;28;19912;-77
2021/05/04 04:54:35;;;;;;;;;;;8.40;99.90;;;;;;5015847;28;20440;-77
2021/05/04 04:57:01;;;;;;;;;;;8.40;99.90;;;;;;5013381;28;19905;-77
2021/05/04 04:59:27;;;;;;;;;;;8.50;99.90;;;;;;5031122;28;19912;-77
2021/05/04 05:01:52;;;;;;;;;;;8.50;99.90;;;;;;5030907;28;20379;-77
2021/05/04 05:04:18;;;;;;;;;;;8.60;99.90;;;;;;5013508;28;20280;-77
2021/05/04 05:06:43;;;;;;;;;;;8.60;99.90;;;;;;5013410;28;19905;-77
2021/05/04 05:09:09;;;;;;;;;;;8.70;99.90;;;;;;5031231;28;20042;-77
2021/05/04 05:11:35;;;;;;;;;;;8.80;99.90;;;;;;5031111;28;19918;-76
2021/05/04 05:14:03;;;;;;;;;;;8.90;99.90;;;;;;5013169;28;19916;-76
2021/05/04 05:16:28;;;;;;;;;;;9.10;99.90;;;;;;5030925;28;19919;-77
2021/05/04 05:18:53;;;;;;;;;;;9.10;99.90;;;;;;5012146;28;19992;-76
2021/05/04 05:21:20;;;;;;;;;;;9.30;99.90;;;;;;4994350;28;19951;-76
2021/05/04 05:23:45;;;;;;;;;;;9.30;99.90;;;;;;4999234;28;20290;-77
2021/05/04 05:26:11;;;;;;;;;;;9.40;99.90;;;;;;5013315;28;19905;-76
2021/05/04 05:28:37;;;;;;;;;;;9.50;99.90;;;;;;5013253;28;19909;-77
2021/05/04 05:31:03;;;;;;;;;;;9.70;99.90;;;;;;5012612;28;19917;-76
2021/05/04 05:33:29;;;;;;;;;;;9.70;99.90;;;;;;5011273;28;20328;-77
2021/05/04 05:35:54;;;;;;;;;;;9.70;99.90;;;;;;5030274;28;20265;-77
2021/05/04 05:38:19;;;;;;;;;;;9.60;99.90;;;;;;5012609;28;19944;-77
2021/05/04 05:40:45;;;;;;;;;;;9.60;99.90;;;;;;5010497;28;19909;-77
2021/05/04 05:43:10;;;;;;;;;;;9.70;99.90;;;;;;5012195;28;19905;-77
2021/05/04 05:45:36;;;;;;;;;;;9.90;99.90;;;;;;5012555;28;19909;-76
2021/05/04 05:48:01;;;;;;;;;;;10.00;99.90;;;;;;5015365;28;19905;-77
2021/05/04 05:50:27;;;;;;;;;;;10.20;99.90;;;;;;5016802;28;20351;-77
2021/05/04 05:52:52;;;;;;;;;;;10.40;99.90;;;;;;5033925;28;19905;-77
2021/05/04 05:55:18;;;;;;;;;;;10.60;99.90;;;;;;5033876;28;19916;-77
2021/05/04 05:57:43;;;;;;;;;;;10.80;99.90;;;;;;5016089;28;19913;-77
2021/05/04 06:00:09;;;;;;;;;;;10.80;99.90;;;;;;5003257;28;19913;-77
2021/05/04 06:02:35;;;;;;;;;;;10.90;99.90;;;;;;5014019;28;19916;-77
2021/05/04 06:05:00;;;;;;;;;;;10.90;99.90;;;;;;4996441;28;19906;-77
2021/05/04 06:07:26;;;;;;;;;;;10.80;99.90;;;;;;4996397;28;19905;-77
2021/05/04 06:09:51;;;;;;;;;;;10.90;99.90;;;;;;4996589;28;20273;-77
2021/05/04 06:12:16;;;;;;;;;;;11.10;99.90;;;;;;4996636;28;19905;-78
2021/05/04 06:14:42;;;;;;;;;;;11.20;99.90;;;;;;4996488;28;19964;-77
2021/05/04 06:17:07;;;;;;;;;;;11.30;99.90;;;;;;5014720;28;19905;-77
2021/05/04 06:19:33;;;;;;;;;;;11.30;99.90;;;;;;5015269;28;19906;-77
2021/05/04 06:21:58;;;;;;;;;;;11.40;99.90;;;;;;5014358;28;19912;-77
2021/05/04 06:24:24;;;;;;;;;;;11.40;99.90;;;;;;4996979;28;20043;-77
2021/05/04 06:26:51;;;;;;;;;;;11.50;99.90;;;;;;5014558;28;20403;-77
2021/05/04 06:29:16;;;;;;;;;;;11.70;99.90;;;;;;4997176;28;19905;-77
2021/05/04 06:31:43;;;;;;;;;;;11.80;99.90;;;;;;4997023;28;19906;-77
2021/05/04 06:34:11;;;;;;;;;;;11.90;99.90;;;;;;5014165;28;19916;-77
2021/05/04 06:36:36;;;;;;;;;;;12.00;99.90;;;;;;5026520;28;20303;-77
2021/05/04 06:39:02;;;;;;;;;;;12.00;99.90;;;;;;5016223;28;19905;-77
2021/05/04 06:41:34;;;;;;;;;;;12.20;99.90;;;;;;5032265;28;19952;-77
2021/05/04 06:44:00;;;;;;;;;;;12.30;99.90;;;;;;5004143;28;20001;-77
2021/05/04 06:46:27;;;;;;;;;;;12.30;99.90;;;;;;5005182;28;19999;-76
2021/05/04 06:48:53;;;;;;;;;;;12.50;99.90;;;;;;5033397;28;19905;-77
2021/05/04 06:51:18;;;;;;;;;;;12.60;99.90;;;;;;5033600;28;19960;-77
2021/05/04 06:53:43;;;;;;;;;;;12.80;99.90;;;;;;5033620;28;19909;-77
2021/05/04 06:56:09;;;;;;;;;;;13.10;99.90;;;;;;5016049;28;20287;-77
2021/05/04 06:58:34;;;;;;;;;;;13.20;99.90;;;;;;5015883;28;19975;-77
2021/05/04 07:01:00;;;;;;;;;;;13.20;99.90;;;;;;5033481;28;19905;-76
2021/05/04 07:03:25;;;;;;;;;;;13.20;99.90;;;;;;5015647;28;19905;-77
2021/05/04 07:05:51;;;;;;;;;;;13.30;99.90;;;;;;5016159;28;20375;-77
2021/05/04 07:08:16;;;;;;;;;;;13.20;99.90;;;;;;5029107;28;20334;-77
2021/05/04 07:10:52;;;;;;;;;;;13.20;99.90;;;;;;5013961;28;20384;-80
2021/05/04 07:13:18;;;;;;;;;;;13.30;99.90;;;;;;5010508;28;19909;-77
2021/05/04 07:15:45;;;;;;;2.05;0.82;;;13.50;99.90;;;;;;5032140;28;20272;-77
2021/05/04 07:18:11;;;;;;;;;;;13.60;99.90;;;;;;5014624;28;20033;-77
2021/05/04 07:20:39;;;;;;;0.73;0.67;;;13.70;99.90;;;;;;5032800;28;19916;-76
2021/05/04 07:23:08;;;;;;;;;;;13.80;99.90;;;;;;5015333;28;20021;-78
2021/05/04 07:25:34;;;;;;;;;;;13.90;99.90;;;;;;5015939;28;19971;-78
2021/05/04 07:28:00;;;;;;;;;;;14.00;99.90;;;;;;5016084;28;19913;-76
2021/05/04 07:30:26;;;;;;;;;;;14.00;99.90;;;;;;5015519;28;19909;-78
2021/05/04 07:32:51;;;;;;;7.05;1.13;;;14.40;99.90;;;;;;5014814;28;19916;-78
2021/05/04 07:35:17;;;;;;;;;;;14.50;98.30;;;;;;5032419;28;20026;-78
2021/05/04 07:37:43;;;;;;;1.08;0.63;;;14.60;98.50;;;;;;5033213;28;19955;-78
2021/05/04 07:40:09;;;;;;;2.05;1.63;;;14.80;99.30;;;;;;5015173;28;20399;-79
2021/05/04 07:42:35;;;;;;;0.52;0.35;;;14.80;96.40;;;;;;5033140;28;20030;-79
2021/05/04 07:45:01;;;;;;;1.90;0.88;;;14.80;92.80;;;;;;5032304;28;20369;-78
2021/05/04 07:47:26;;;;;;;0.47;0.45;;;14.80;93.90;;;;;;5032426;28;20030;-78
2021/05/04 07:49:52;;;;;;;0.52;0.30;;;15.00;95.90;;;;;;5030934;28;20030;-78
2021/05/04 07:52:18;;;;;;;1.45;0.50;;;15.20;96.50;;;;;;5030993;28;20448;-78
2021/05/04 07:54:43;;;;;;;6.60;1.73;;;15.00;91.80;;;;;;5030698;28;20028;-78
2021/05/04 07:57:10;;;;;;;3.45;0.85;;;14.80;82.50;;;;;;5014642;28;20401;-78
2021/05/04 07:59:36;;;;;;;1.73;1.27;;;14.90;82.10;;;;;;5032411;28;20018;-78
2021/05/04 08:02:02;;;;;;;15.20;2.47;;;15.10;80.70;;;;;;5014485;28;20021;-78
2021/05/04 08:04:29;;;;;;;4.05;0.60;;;15.60;78.20;;;;;;5032084;28;20113;-78
2021/05/04 08:06:56;;;;;;;3.47;0.85;;;15.90;74.90;;;;;;5032139;28;20036;-79
2021/05/04 08:09:22;;;;;;;0.60;0.60;;;15.70;76.20;;;;;;5032173;28;20021;-78
2021/05/04 08:11:48;;;;;;;1.20;0.40;;;15.10;76.10;;;;;;5030839;28;20030;-78
2021/05/04 08:14:13;;;;;;;3.28;0.52;;;15.30;75.70;;;;;;5030282;28;20071;-78
2021/05/04 08:16:39;;;;;;;5.95;1.20;;;15.30;74.70;;;;;;5030610;28;20022;-78
2021/05/04 08:19:05;;;;;;;1.85;0.50;;;15.40;73.00;;;;;;5030678;28;20064;-78
2021/05/04 08:21:35;;;;;;;0.77;0.57;;;15.50;74.80;;;;;;5031948;28;20024;-78
2021/05/04 08:24:05;;;;;;;0.75;0.75;;;15.50;72.60;;;;;;5031553;28;20550;-78
2021/05/04 08:26:31;;;;;;;;;;;15.50;74.90;;;;;;5030265;28;20530;-78
2021/05/04 08:28:57;;;;;;;;;;;15.30;76.60;;;;;;5014644;28;19948;-79
2021/05/04 08:31:23;;;;;;;3.28;0.77;;;14.80;79.10;;;;;;5014042;28;19954;-78
2021/05/04 08:33:49;;;;;;;1.40;0.90;;;14.60;83.00;;;;;;5031526;28;20068;-79
2021/05/04 08:36:14;;;;;;;2.05;0.60;;;14.40;86.30;;;;;;5032240;28;20504;-78
2021/05/04 08:38:40;;;;;;;5.38;1.30;;;14.40;90.00;;;;;;5014190;28;20032;-78
2021/05/04 08:41:09;;;;;;;0.38;0.38;;;14.30;90.10;;;;;;5014147;28;20500;-78
2021/05/04 08:43:35;;;;;;;0.40;0.40;;;14.20;92.60;;;;;;5013889;28;20022;-78
2021/05/04 08:46:02;;;;;;;1.88;0.45;;;14.30;92.50;;;;;;5013764;28;20026;-78
2021/05/04 08:48:29;;;;;;;1.00;0.50;;;14.50;92.50;;;;;;5013772;28;20732;-79
2021/05/04 08:50:56;;;;;;;0.93;0.77;;;14.50;92.00;;;;;;5013789;28;20083;-78
2021/05/04 08:53:22;;;;;;;1.98;0.77;;;14.50;92.10;;;;;;5014428;28;20029;-78
2021/05/04 08:55:48;;;;;;;0.30;0.30;;;14.30;93.10;;;;;;5013749;28;20045;-79
2021/05/04 08:58:14;;;;;;;2.45;0.50;;;14.40;93.80;;;;;;5014488;28;20361;-79
2021/05/04 09:00:40;;;;;;;0.40;0.40;;;14.40;95.30;;;;;;5015285;28;20021;-79
2021/05/04 09:03:22;;;;;;;0.63;0.45;;;14.30;95.70;;;;;;5013795;28;20022;-78
2021/05/04 09:05:58;;;;;;;1.52;0.50;;;14.20;96.70;;;;;;5031349;28;20108;-79
2021/05/04 09:11:47;;;;;;;1.08;0.50;;;14.20;96.40;;;;;;5031287;28;20037;-78
2021/05/04 09:14:22;;;;;;;1.00;0.60;;;14.20;97.10;;;;;;5013432;28;20156;-78
2021/05/04 09:17:30;;;;;;;0.77;0.45;;;14.20;96.50;;;;;;5013708;28;20026;-78
2021/05/04 09:20:03;;;;;;;0.60;0.60;;;14.30;96.90;;;;;;5030745;28;20480;-79
2021/05/04 09:22:43;;;;;;;0.55;0.40;;;14.60;96.60;;;;;;5033454;28;20388;-78
2021/05/04 09:25:36;;;;;;;0.75;0.52;;;14.90;95.60;;;;;;5017478;28;20048;-78
2021/05/04 09:28:10;;;;;;;0.40;0.40;;;14.80;96.50;;;;;;5014241;28;20033;-78
2021/05/04 09:30:35;;;;;;;2.22;0.90;;;14.80;95.70;;;;;;5017264;28;20048;-78
2021/05/04 09:33:13;;;;;;;0.43;0.43;;;14.60;96.20;;;;;;5017097;28;20025;-78
2021/05/04 09:35:38;;;;;;;0.55;0.45;;;14.80;96.70;;;;;;5012630;28;20037;-78
2021/05/04 09:38:05;;;;;;;0.90;0.40;;;14.80;96.90;;;;;;5015089;28;20026;-78
2021/05/04 09:40:36;;;;;;;1.52;0.70;;;14.70;96.70;;;;;;5015114;28;20044;-78
2021/05/04 09:43:12;;;;;;;0.85;0.85;;;14.60;97.00;;;;;;5014673;28;20508;-78
2021/05/04 09:45:49;;;;;;;2.03;0.82;;;14.50;97.30;;;;;;4997422;28;20026;-78
2021/05/04 09:48:34;;;;;;;1.23;0.70;;;14.30;98.40;;;;;;4997420;28;20378;-78
2021/05/04 09:51:23;;;;;;;0.98;0.68;;;14.60;98.40;;;;;;4997241;28;20025;-79
2021/05/04 09:56:33;;;;;;;;;;;14.60;98.10;;;;;;5015517;28;20018;-79
2021/05/04 09:58:59;;;;;;;;;;;14.50;99.10;;;;;;5005409;28;19905;-79
2021/05/04 10:01:25;;;;;;;;;;;14.40;99.60;;;;;;5036901;28;20360;-79
2021/05/04 10:03:51;;;;;;;;;;;14.40;99.90;;;;;;5036701;28;19905;-79
2021/05/04 10:06:18;;;;;;;;;;;14.30;99.90;;;;;;5036792;28;19912;-79
2021/05/04 10:08:44;;;;;;;;;;;14.10;99.90;;;;;;5054744;28;20338;-79
2021/05/04 10:11:10;;;;;;;;;;;13.90;99.90;;;;;;5034579;28;19904;-79
2021/05/04 10:13:37;;;;;;;;;;;14.10;99.90;;;;;;5016517;28;20000;-78
2021/05/04 10:16:03;;;;;;;;;;;14.40;99.90;;;;;;5016620;28;19992;-78
2021/05/04 10:18:29;;;;;;;;;;;14.50;99.90;;;;;;5016705;28;20012;-78
2021/05/04 10:20:56;;;;;;;;;;;14.30;99.90;;;;;;5016672;28;19993;-78
2021/05/04 10:23:22;;;;;;;;;;;14.20;99.90;;;;;;5016588;28;19911;-78
2021/05/04 10:25:51;;;;;;;;;;;14.20;99.90;;;;;;5016616;28;19911;-78
2021/05/04 10:28:17;;;;;;;;;;;14.30;99.90;;;;;;5016451;28;19962;-78
2021/05/04 10:30:43;;;;;;;0.80;0.80;;;14.80;99.90;;;;;;5016175;28;19905;-79
2021/05/04 10:33:10;;;;;;;3.65;0.85;;;15.40;99.90;;;;;;5023404;28;20025;-78
2021/05/04 10:35:37;;;;;;;;;;;15.30;99.90;;;;;;5018027;28;20025;-78
2021/05/04 10:38:08;;;;;;;0.88;0.52;;;14.90;99.90;;;;;;5033736;28;19905;-78
2021/05/04 10:40:36;;;;;;;2.08;0.60;;;14.70;99.90;;;;;;5033203;28;20018;-78
2021/05/04 10:43:22;;;;;;;1.23;0.68;;;14.70;99.90;;;;;;5015534;28;20022;-78
2021/05/04 10:45:53;;;;;;;1.65;0.60;;;15.10;99.90;;;;;;5015952;28;20029;-78
2021/05/04 10:48:42;;;;;;;0.57;0.57;;;15.60;99.90;;;;;;5015945;28;20021;-79
2021/05/04 10:51:14;;;;;;;0.52;0.47;;;17.00;99.90;;;;;;5015690;28;20373;-79
2021/05/04 10:53:59;;;;;;;1.10;0.73;;;17.10;96.60;;;;;;5033333;28;20021;-78
2021/05/04 10:56:46;;;;;;;0.60;0.60;;;17.20;96.80;;;;;;5015557;28;20028;-79
2021/05/04 10:59:16;;;;;;;1.85;0.77;;;16.80;96.70;;;;;;5015850;28;20022;-78
2021/05/04 11:02:08;;;;;;;0.65;0.50;;;16.50;97.00;;;;;;5033291;28;20029;-77
2021/05/04 11:04:42;;;;;;;0.50;0.50;;;16.40;96.90;;;;;;5015570;28;20443;-79
2021/05/04 11:07:08;;;;;;;0.50;0.30;;;16.40;96.60;;;;;;5015502;28;20060;-78
2021/05/04 11:09:40;;;;;;;1.17;1.08;;;15.70;99.60;;;;;;5015223;28;20053;-79
2021/05/04 11:12:29;;;;;;;2.85;0.52;;;15.40;99.90;;;;;;5015280;28;20033;-79
2021/05/04 11:15:18;;;;;;;0.65;0.50;;;15.20;99.90;;;;;;5014935;28;20511;-78
2021/05/04 11:17:44;;;;;;;0.43;0.43;;;15.30;99.90;;;;;;5015288;28;20025;-78
2021/05/04 11:20:34;;;;;;;18.88;1.08;;;15.20;99.90;;;;;;5015233;28;20079;-78
2021/05/04 11:23:00;;;;;;;0.80;0.50;;;15.20;99.90;;;;;;5015009;28;19904;-78
2021/05/04 11:25:36;;;;;;;0.20;0.20;;;16.00;99.90;;;;;;5015140;28;20029;-79
2021/05/04 11:28:02;;;;;;;1.45;0.52;;;15.80;99.90;;;;;;5015093;28;20439;-79
2021/05/04 11:30:54;;;;;;;1.20;0.65;;;15.60;99.90;;;;;;5015077;28;20378;-79
2021/05/04 11:33:30;;;;;;;1.40;0.82;;;15.70;99.90;;;;;;5028839;28;20511;-79
2021/05/04 11:35:58;;;;;;;2.80;0.85;;;15.60;99.90;;;;;;5013481;28;20419;-79
2021/05/04 11:38:24;;;;;;;;;;;15.40;99.90;;;;;;5031680;28;20033;-78
2021/05/04 11:40:50;;;;;;;0.40;0.40;;;15.40;99.90;;;;;;5014950;28;20045;-78
2021/05/04 11:43:17;;;;;;;;;;;14.80;99.90;;;;;;5031103;28;20222;-78
2021/05/04 11:45:42;;;;;;;;;;;14.90;99.90;;;;;;5014164;28;20264;-78
2021/05/04 11:48:08;;;;;;;;;;;14.90;99.90;;;;;;5015070;28;19911;-78
2021/05/04 11:50:34;;;;;;;;;;;14.60;99.90;;;;;;5014518;28;20253;-78
2021/05/04 11:53:04;;;;;;;;;;;14.30;99.90;;;;;;5014786;28;19950;-78
2021/05/04 11:55:40;;;;;;;;;;;14.20;99.90;;;;;;5014722;28;19916;-78
2021/05/04 11:58:07;;;;;;;;;;;14.10;99.90;;;;;;5013888;28;19956;-78
2021/05/04 12:00:35;;;;;;;1.45;0.85;;;14.00;99.90;;;;;;5014402;28;19963;-79
2021/05/04 12:03:07;;;;;;;;;;;13.90;99.90;;;;;;5031098;28;20029;-78
2021/05/04 12:05:32;;;;;;;;;;;13.70;99.90;;;;;;5014617;28;19949;-78
2021/05/04 12:07:58;;;;;;;;;;;13.60;99.90;;;;;;5015000;28;19972;-77
2021/05/04 12:10:25;;;;;;;;;;;13.50;99.90;;;;;;5014863;28;19916;-79
2021/05/04 12:13:12;;;;;;;;;;;13.40;99.90;;;;;;5033018;28;20269;-78
2021/05/04 12:15:39;;;;;;;;;;;13.40;99.90;;;;;;5014512;28;19925;-78
2021/05/04 12:18:06;;;;;;;;;;;13.20;99.90;;;;;;5015245;28;19913;-79
2021/05/04 12:20:33;;;;;;;;;;;13.20;99.90;;;;;;5014532;28;20361;-78
2021/05/04 12:23:00;;;;;;;;;;;13.20;99.90;;;;;;5018422;28;19910;-79
2021/05/04 12:25:39;;;;;;;;;;;13.20;99.90;;;;;;5014830;28;19917;-79
2021/05/04 12:28:12;;;;;;;;;;;13.20;99.90;;;;;;5014824;28;20007;-79
2021/05/04 12:30:37;;;;;;;;;;;13.30;99.90;;;;;;5014634;28;19909;-79
2021/05/04 12:33:03;;;;;;;;;;;13.40;99.90;;;;;;5014607;28;20188;-79
2021/05/04 12:35:31;;;;;;;;;;;13.60;99.90;;;;;;5014265;28;19948;-79
2021/05/04 12:38:05;;;;;;;;;;;14.10;99.90;;;;;;5013546;28;20279;-79
2021/05/04 12:40:31;;;;;;;;;;;14.80;99.90;;;;;;5013870;28;24062;-79
2021/05/04 12:43:17;;;;;;;1.15;0.80;;;14.90;99.90;;;;;;5031826;28;20431;-79
2021/05/04 12:46:05;;;;;;;3.15;1.67;;;14.70;99.90;;;;;;5015567;28;20032;-78
2021/05/04 12:48:31;;;;;;;0.73;0.60;;;14.60;99.90;;;;;;5032292;28;20029;-78
2021/05/04 12:51:05;;;;;;;0.73;0.70;;;14.80;99.90;;;;;;5032753;28;20029;-79
2021/05/04 12:53:37;;;;;;;1.20;0.73;;;14.60;99.90;;;;;;5015736;28;20018;-79
2021/05/04 12:56:04;;;;;;;;;;;14.60;99.90;;;;;;5033048;28;20021;-79
2021/05/04 12:58:30;;;;;;;;;;;14.90;99.90;;;;;;5036646;28;20380;-79
2021/05/04 13:01:09;;;;;;;;;;;15.10;99.90;;;;;;5017925;28;19909;-79
2021/05/04 13:03:49;;;;;;;;;;;15.00;99.90;;;;;;5017424;28;20146;-79
2021/05/04 13:11:54;;;;;;;;;;;14.10;99.90;;;;;;5035616;28;19905;-79
2021/05/04 13:14:54;;;;;;;;;;;13.70;99.90;;;;;;5017291;28;19916;-79
2021/05/04 13:17:54;;;;;;;;;;;13.40;99.90;;;;;;5018125;28;19936;-80
2021/05/04 13:20:49;;;;;;;;;;;13.20;99.90;;;;;;5035403;28;19940;-80
2021/05/04 13:31:57;;;;;;;;;;;12.90;99.90;;;;;;5035505;28;19928;-80
2021/05/04 13:34:30;;;;;;;;;;;12.60;99.90;;;;;;5017937;28;19913;-79
2021/05/04 13:36:55;;;;;;;;;;;12.60;99.90;;;;;;5003309;28;19916;-79
2021/05/04 13:47:50;;;;;;;1.33;1.15;;;12.90;99.90;;;;;;5015863;28;20029;-79
2021/05/04 13:50:18;;;;;;;0.95;0.65;;;13.10;99.90;;;;;;5015107;28;20053;-79
2021/05/04 13:52:47;;;;;;;2.15;0.63;;;13.30;99.90;;;;;;4997444;28;20029;-79
2021/05/04 13:55:14;;;;;;;0.40;0.40;;;13.50;99.90;;;;;;4997577;28;20512;-79
2021/05/04 13:57:41;;;;;;;0.32;0.30;;;13.40;99.90;;;;;;4997441;28;20405;-80
2021/05/04 14:00:08;;;;;;;0.80;0.73;;;13.20;99.90;;;;;;4997491;28;20021;-79
2021/05/04 14:26:53;;;;;;;2.20;1.40;;;11.90;99.90;;;;;;5014462;28;20036;-80
2021/05/04 14:29:19;;;;;;;1.33;1.20;;;11.80;99.90;;;;;;4996759;28;20493;-79
2021/05/04 14:31:45;;;;;;;1.45;0.95;;;11.70;99.90;;;;;;4996590;28;20489;-79
2021/05/04 14:34:12;;;;;;;2.50;1.20;;;11.70;99.90;;;;;;4996263;28;20034;-80
2021/05/04 14:36:53;;;;;;;2.08;1.35;;;11.80;99.90;;;;;;5008780;28;20048;-80
2021/05/04 14:39:32;;;;;;;4.97;1.70;;;11.70;99.90;;;;;;5015958;28;20496;-80
2021/05/04 14:56:09;;;;;;;1.52;1.15;;;12.00;99.90;;;;;;4973446;28;20456;-79
2021/05/04 14:58:44;;;;;;;2.00;1.13;;;12.10;99.90;;;;;;5016929;28;20036;-79
2021/05/04 15:03:36;;;;;;;1.02;0.90;;;12.00;99.90;;;;;;5031691;28;20389;-78
2021/05/04 15:06:02;;;;;;;1.80;1.67;;;12.10;99.90;;;;;;5014511;28;20590;-79